Flight Track Log - Related Links

Times and Time Zones

All times are in EDT time to prevent confusion due to time zone crossing. See the SWA896 flight status page for this flight to view local times or setup timezone preferences in your user account.

Time Position Orientation Groundspeed Altitude Reporting Facility
EDT Latitude Longitude Course Direction KTS MPH feet Rate Location/Type
Thu 08:14:43 AM 42.9667 -78.7000 202° Southwest 189 217 1,700  Level Buffalo TRACON
Thu 08:15:07 AM 42.9833 -78.6833 36° Northeast 199 229 2,200 1,515 Climbing Buffalo TRACON
Thu 08:16:26 AM 43.0097 -78.5844 70° East 277 319 4,300 1,899 Climbing Cleveland Center
Thu 08:17:26 AM 42.9558 -78.5889 183° South 130 150 6,600 2,200 Climbing Cleveland Center
Thu 08:19:26 AM 42.8322 -78.6778 208° Southwest 197 227 10,900 2,267 Climbing Cleveland Center
Thu 08:20:00 AM 42.3203 -79.0430 202° Southwest  Level FlightAware Approximate
Thu 08:20:26 AM 42.7600 -78.7308 208° Southwest 258 297 13,400  Level Cleveland Center
Thu 08:21:26 AM 42.6817 -78.7842 207° Southwest 290 334 15,800 1,500 Climbing Cleveland Center
Thu 08:22:26 AM 42.5972 -78.8431 207° Southwest 320 368 16,400 1,250 Climbing Cleveland Center
Thu 08:23:26 AM 42.5022 -78.9075 207° Southwest 359 413 18,300 1,850 Climbing Cleveland Center
Thu 08:24:26 AM 42.4094 -78.9831 211° Southwest 380 437 20,100 1,800 Climbing Cleveland Center
Thu 08:25:26 AM 42.3928 -79.1269 261° West 358 412 21,900 1,700 Climbing Cleveland Center
Thu 08:26:26 AM 42.3925 -79.2786 270° West 362 417 23,500 1,500 Climbing Cleveland Center
Thu 08:27:26 AM 42.3878 -79.4361 268° West 395 455 24,900 1,350 Climbing Cleveland Center
Thu 08:28:26 AM 42.3872 -79.5936 270° West 411 473 26,200 1,200 Climbing Cleveland Center
Thu 08:29:26 AM 42.3822 -79.7511 268° West 424 488 27,300 1,200 Climbing Cleveland Center
Thu 08:30:26 AM 42.3769 -79.9114 268° West 424 488 28,600 1,400 Climbing Cleveland Center
Thu 08:31:26 AM 42.3736 -80.0914 269° West 429 494 30,100 1,400 Climbing Cleveland Center
Thu 08:32:26 AM 42.3681 -80.2489 267° West 429 494 31,400 1,150 Climbing Cleveland Center
Thu 08:33:26 AM 42.3642 -80.4089 268° West 429 494 32,400 950 Climbing Cleveland Center
Thu 08:34:26 AM 42.3603 -80.5719 268° West 424 488 33,300 800 Climbing Cleveland Center
Thu 08:35:26 AM 42.3539 -80.7097 266° West 429 494 34,000 350 Climbing Cleveland Center
Thu 08:36:26 AM 42.3494 -80.8697 268° West 424 488 34,000  Level Cleveland Center
Thu 08:37:26 AM 42.3447 -81.0297 268° West 424 488 34,000  Level Cleveland Center
Thu 08:38:26 AM 42.3378 -81.1928 267° West 424 488 34,000  Level Cleveland Center
Thu 08:39:26 AM 42.3325 -81.3472 267° West 429 494 34,000  Level Cleveland Center
Thu 08:40:26 AM 42.3272 -81.5072 267° West 424 488 34,000  Level Cleveland Center
Thu 08:41:26 AM 42.3217 -81.6672 267° West 424 488 34,000 -550 Level Cleveland Center
Thu 08:42:26 AM 42.3139 -81.8269 266° West 424 488 32,900 -1,400 Descending Cleveland Center
Thu 08:43:26 AM 42.3078 -81.9925 267° West 437 503 31,200 -1,450 Descending Cleveland Center
Thu 08:44:26 AM 42.2992 -82.1664 266° West 433 498 30,000 -600 Descending Cleveland Center
Thu 08:45:26 AM 42.2906 -82.3289 266° West 433 498 30,000  Level Cleveland Center
Thu 08:46:26 AM 42.2839 -82.4917 267° West 438 504 30,000  Level Cleveland Center
Thu 08:47:26 AM 42.2747 -82.6597 266° West 443 510 30,000  Level Cleveland Center
Thu 08:48:26 AM 42.2672 -82.8278 267° West 443 510 30,000  Level Cleveland Center
Thu 08:49:26 AM 42.2578 -82.9903 266° West 443 510 30,000  Level Cleveland Center
Thu 08:50:26 AM 42.2500 -83.1556 266° West 443 510 30,000  Level Cleveland Center
Thu 08:51:26 AM 42.2400 -83.3233 265° West 448 516 30,000 -350 Level Cleveland Center
Thu 08:52:26 AM 42.2339 -83.4831 267° West 436 502 29,300 -750 Descending Cleveland Center
Thu 08:53:26 AM 42.2217 -83.6367 264° West 441 507 28,500 -650 Descending Cleveland Center
Thu 08:54:26 AM 42.2131 -83.7989 266° West 446 513 28,000 -250 Descending Cleveland Center
Thu 08:55:26 AM 42.2042 -83.9583 266° West 441 507 28,000  Level Cleveland Center
Thu 08:56:26 AM 42.1950 -84.1231 266° West 441 507 28,000  Level Cleveland Center
Thu 08:57:26 AM 42.2025 -84.2861 274° West 441 507 28,000  Level Cleveland Center
Thu 08:58:26 AM 42.2306 -84.4478 283° West 441 507 28,000  Level Cleveland Center
Thu 09:00:02 AM 42.2819 -84.7142 285° West 440 506 28,000  Level Chicago Center
Thu 09:01:03 AM 42.3122 -84.8739 284° West 440 506 28,000  Level Chicago Center
Thu 09:02:04 AM 42.3442 -85.0331 285° West 440 506 28,000 639 Level Chicago Center
Thu 09:03:05 AM 42.3792 -85.1914 287° West 441 507 29,300 1,377 Climbing Chicago Center
Thu 09:04:06 AM 42.4164 -85.3461 288° West 435 501 30,800 1,426 Climbing Chicago Center
Thu 09:05:07 AM 42.4592 -85.4981 291° West 434 499 32,200 1,377 Climbing Chicago Center
Thu 09:06:08 AM 42.4894 -85.6444 286° West 408 470 33,600 885 Climbing Chicago Center
Thu 09:07:09 AM 42.4481 -85.7811 248° West 395 455 34,000 197 Climbing Chicago Center
Thu 09:08:10 AM 42.3969 -85.9117 242° Southwest 393 452 34,000  Level Chicago Center
Thu 09:09:11 AM 42.3467 -86.0417 242° Southwest 391 450 34,000  Level Chicago Center
Thu 09:10:12 AM 42.2889 -86.1803 241° Southwest 393 452 34,000  Level Chicago Center
Thu 09:11:13 AM 42.2369 -86.3072 241° Southwest 390 449 34,000  Level Chicago Center
Thu 09:12:14 AM 42.1844 -86.4333 241° Southwest 389 448 34,000  Level Chicago Center
Thu 09:13:15 AM 42.1331 -86.5597 241° Southwest 386 444 34,000  Level Chicago Center
Thu 09:14:16 AM 42.0803 -86.6903 241° Southwest 383 441 34,000  Level Chicago Center
Thu 09:15:17 AM 42.0394 -86.8203 247° West 380 437 34,000  Level Chicago Center
Thu 09:16:18 AM 42.0081 -86.9581 253° West 387 445 34,000  Level Chicago Center
Thu 09:17:19 AM 41.9914 -87.0986 261° West 393 452 34,000  Level Chicago Center
Thu 09:18:20 AM 41.9817 -87.2700 266° West 389 448 34,000  Level Chicago Center
Thu 09:19:21 AM 41.9689 -87.4108 263° West 385 443 34,000  Level Chicago Center
Thu 09:20:22 AM 41.9544 -87.5489 262° West 379 436 34,000  Level Chicago Center
Thu 09:21:23 AM 41.9436 -87.6897 264° West 382 440 34,000  Level Chicago Center
Thu 09:22:24 AM 41.9297 -87.8292 262° West 382 440 34,000  Level Chicago Center
Thu 09:23:25 AM 41.9167 -87.9683 263° West 380 437 34,000  Level Chicago Center
Thu 09:24:26 AM 41.9031 -88.1094 263° West 385 443 34,000  Level Chicago Center
Thu 09:25:27 AM 41.8861 -88.2761 262° West 382 440 34,000  Level Chicago Center
Thu 09:26:28 AM 41.8722 -88.4144 262° West 379 436 34,000  Level Chicago Center
Thu 09:27:30 AM 41.8583 -88.5525 262° West 376 433 34,000  Level Chicago Center
Thu 09:28:31 AM 41.8436 -88.6919 262° West 380 437 34,000  Level Chicago Center
Thu 09:29:32 AM 41.8289 -88.8347 262° West 387 445 34,000  Level Chicago Center
Thu 09:30:33 AM 41.8136 -88.9772 262° West 389 448 34,000  Level Chicago Center
Thu 09:31:34 AM 41.7986 -89.1189 262° West 388 447 34,000  Level Chicago Center
Thu 09:32:35 AM 41.7842 -89.2628 262° West 392 451 34,000  Level Chicago Center
Thu 09:33:37 AM 41.7661 -89.4342 262° West 390 449 34,000  Level Chicago Center
Thu 09:34:38 AM 41.7519 -89.5608 262° West 391 450 34,000  Level Chicago Center
Thu 09:35:39 AM 41.7356 -89.7036 261° West 390 449 34,000  Level Chicago Center
Thu 09:36:40 AM 41.7197 -89.8475 262° West 392 451 34,000  Level Chicago Center
Thu 09:37:41 AM 41.7042 -89.9919 262° West 394 453 34,000  Level Chicago Center
Thu 09:38:42 AM 41.6831 -90.1667 261° West 398 458 34,000  Level Chicago Center
Thu 09:39:43 AM 41.6661 -90.3158 261° West 408 470 34,000  Level Chicago Center
Thu 09:40:46 AM 41.6478 -90.4622 261° West 404 465 34,000  Level Chicago Center
Thu 09:41:45 AM 41.6306 -90.6072 261° West 398 458 34,000  Level Chicago Center
Thu 09:42:47 AM 41.6133 -90.7483 261° West 400 460 34,000  Level Chicago Center
Thu 09:43:48 AM 41.5958 -90.8911 261° West 395 455 34,000  Level Chicago Center
Thu 09:44:49 AM 41.5786 -91.0339 261° West 391 450 34,000  Level Chicago Center
Thu 09:45:50 AM 41.5611 -91.1767 261° West 391 450 34,000  Level Chicago Center
Thu 09:46:51 AM 41.5397 -91.3475 261° West 391 450 34,000  Level Chicago Center
Thu 09:47:53 AM 41.5211 -91.4881 260° West 388 447 34,000 195 Level Chicago Center
Thu 09:48:54 AM 41.5031 -91.6300 260° West 390 449 34,400 541 Climbing Chicago Center
Thu 09:49:55 AM 41.4839 -91.7725 260° West 391 450 35,100 689 Climbing Chicago Center
Thu 09:50:56 AM 41.4644 -91.9178 260° West 397 457 35,800 439 Climbing Chicago Center
Thu 09:51:58 AM 41.4453 -92.0647 260° West 402 463 36,000 98 Climbing Chicago Center
Thu 09:52:59 AM 41.4264 -92.2097 260° West 400 460 36,000  Level Chicago Center
Thu 09:54:00 AM 41.4058 -92.3519 259° West 395 455 36,000  Level Chicago Center
Thu 09:55:01 AM 41.3856 -92.5031 260° West 400 460 36,000  Level Chicago Center
Thu 09:56:03 AM 41.3617 -92.6764 260° West 400 460 36,000  Level Chicago Center
Thu 09:56:39 AM 41.3492 -92.7661 260° West 402 463 36,000  Level Minneapolis Center
Thu 09:57:41 AM 41.3292 -92.9122 260° West 405 466 36,000  Level Minneapolis Center
Thu 09:58:42 AM 41.3075 -93.0556 259° West 403 464 36,000  Level Minneapolis Center
Thu 09:59:44 AM 41.2875 -93.1981 259° West 399 459 36,000  Level Minneapolis Center
Thu 10:00:45 AM 41.2661 -93.3419 259° West 399 459 36,000  Level Minneapolis Center
Thu 10:01:47 AM 41.2450 -93.4861 259° West 400 460 36,000  Level Minneapolis Center
Thu 10:03:00 AM 41.2211 -93.6522 259° West 392 451 36,000  Level Minneapolis Center
Thu 10:04:02 AM 41.1942 -93.8272 258° West 400 460 36,000  Level Minneapolis Center
Thu 10:05:04 AM 41.1714 -93.9706 258° West 403 464 36,000  Level Minneapolis Center
Thu 10:06:05 AM 41.1497 -94.1106 258° West 400 460 36,000  Level Minneapolis Center
Thu 10:07:07 AM 41.1303 -94.2503 260° West 393 452 36,000  Level Minneapolis Center
Thu 10:08:08 AM 41.1111 -94.3850 259° West 385 443 36,000  Level Minneapolis Center
Thu 10:09:10 AM 41.0850 -94.5542 258° West 393 452 36,000  Level Minneapolis Center
Thu 10:10:11 AM 41.0600 -94.7008 257° West 396 456 36,000  Level Minneapolis Center
Thu 10:11:13 AM 41.0381 -94.8422 258° West 394 453 36,000  Level Minneapolis Center
Thu 10:12:14 AM 41.0150 -94.9861 258° West 398 458 36,000  Level Minneapolis Center
Thu 10:13:16 AM 40.9908 -95.1314 258° West 402 463 36,000  Level Minneapolis Center
Thu 10:14:17 AM 40.9672 -95.2747 258° West 400 460 36,000  Level Minneapolis Center
Thu 10:15:19 AM 40.9436 -95.4189 258° West 400 460 36,000  Level Minneapolis Center
Thu 10:16:20 AM 40.9192 -95.5650 258° West 404 465 36,000  Level Minneapolis Center
Thu 10:17:22 AM 40.8947 -95.7119 258° West 405 466 36,000  Level Minneapolis Center
Thu 10:18:23 AM 40.8700 -95.8603 258° West 410 472 36,000  Level Minneapolis Center
Thu 10:19:25 AM 40.8397 -96.0389 257° West 412 474 36,000  Level Minneapolis Center
Thu 10:20:26 AM 40.8139 -96.1864 257° West 411 473 36,000  Level Minneapolis Center
Thu 10:21:28 AM 40.7883 -96.3328 257° West 410 472 36,000  Level Minneapolis Center
Thu 10:22:29 AM 40.7633 -96.4833 258° West 415 478 36,000  Level Minneapolis Center
Thu 10:23:31 AM 40.7367 -96.6297 257° West 412 474 36,000  Level Minneapolis Center
Thu 10:24:32 AM 40.7108 -96.7758 257° West 409 471 36,000  Level Minneapolis Center
Thu 10:25:34 AM 40.6853 -96.9225 257° West 410 472 36,000  Level Minneapolis Center
Thu 10:26:35 AM 40.6592 -97.0678 257° West 410 472 36,000  Level Minneapolis Center
Thu 10:27:37 AM 40.6328 -97.2144 257° West 410 472 36,000  Level Minneapolis Center
Thu 10:28:38 AM 40.6031 -97.3753 256° West 414 476 36,000  Level Minneapolis Center
Thu 10:29:40 AM 40.5764 -97.5231 257° West 415 478 36,000  Level Minneapolis Center
Thu 10:30:41 AM 40.5478 -97.6708 256° West 416 479 36,000  Level Minneapolis Center
Thu 10:31:43 AM 40.5206 -97.8178 256° West 414 476 36,000  Level Minneapolis Center
Thu 10:32:44 AM 40.4928 -97.9639 256° West 413 475 36,000  Level Minneapolis Center
Thu 10:33:46 AM 40.4597 -98.1381 256° West 410 472 36,000  Level Minneapolis Center
Thu 10:34:47 AM 40.4317 -98.2833 256° West 410 472 36,000  Level Minneapolis Center
Thu 10:35:49 AM 40.4036 -98.4294 256° West 410 472 36,000  Level Minneapolis Center
Thu 10:36:51 AM 40.3750 -98.5761 256° West 413 475 36,000  Level Minneapolis Center
Thu 10:37:52 AM 40.3469 -98.7244 256° West 416 479 36,000  Level Minneapolis Center
Thu 10:38:54 AM 40.3172 -98.8714 255° West 416 479 36,000  Level Minneapolis Center
Thu 10:39:23 AM 40.2997 -98.9594 255° West 414 476 36,000  Level Denver Center
Thu 10:40:25 AM 40.2708 -99.1056 256° West 413 475 36,000  Level Denver Center
Thu 10:41:26 AM 40.2408 -99.2539 255° West 418 481 36,000  Level Denver Center
Thu 10:42:28 AM 40.2106 -99.4011 255° West 418 481 36,000  Level Denver Center
Thu 10:43:29 AM 40.1808 -99.5458 255° West 414 476 36,000  Level Denver Center
Thu 10:44:31 AM 40.1506 -99.6908 255° West 412 474 36,000  Level Denver Center
Thu 10:45:33 AM 40.1211 -99.8350 255° West 412 474 36,000  Level Denver Center
Thu 10:46:34 AM 40.0858 -100.0025 255° West 416 479 36,000  Level Denver Center
Thu 10:47:36 AM 40.0567 -100.1425 255° West 417 480 36,000  Level Denver Center
Thu 10:48:38 AM 40.0281 -100.2803 255° West 412 474 36,000  Level Denver Center
Thu 10:49:39 AM 39.9925 -100.4411 254° West 412 474 36,000  Level Denver Center
Thu 10:50:41 AM 39.9631 -100.5811 255° West 416 479 36,000  Level Denver Center
Thu 10:51:43 AM 39.9283 -100.7431 254° West 415 478 36,000  Level Denver Center
Thu 10:52:45 AM 39.8975 -100.8842 254° West 419 482 36,000  Level Denver Center
Thu 10:53:46 AM 39.8675 -101.0228 254° West 416 479 36,000  Level Denver Center
Thu 10:54:48 AM 39.8303 -101.1847 253° West 419 482 36,000  Level Denver Center
Thu 10:55:50 AM 39.8008 -101.3217 254° West 413 475 36,000  Level Denver Center
Thu 10:56:52 AM 39.7658 -101.4806 254° West 405 466 36,000  Level Denver Center
Thu 10:57:53 AM 39.7353 -101.6167 254° West 410 472 36,000  Level Denver Center
Thu 10:58:55 AM 39.6994 -101.7711 253° West 401 461 36,000  Level Denver Center
Thu 10:59:57 AM 39.6697 -101.9061 254° West 405 466 36,000  Level Denver Center
Thu 11:00:59 AM 39.6342 -102.0608 253° West 401 461 36,000  Level Denver Center
Thu 11:02:01 AM 39.6028 -102.1942 253° West 404 465 36,000  Level Denver Center
Thu 11:03:03 AM 39.5722 -102.3306 254° West 410 472 36,000  Level Denver Center
Thu 11:04:05 AM 39.5364 -102.4814 253° West 410 472 36,000  Level Denver Center
Thu 11:05:06 AM 39.5017 -102.6236 252° West 411 473 36,000  Level Denver Center
Thu 11:06:08 AM 39.4694 -102.7661 254° West 411 473 36,000  Level Denver Center
Thu 11:07:10 AM 39.4347 -102.9081 252° West 409 471 36,000  Level Denver Center
Thu 11:08:12 AM 39.3958 -103.0739 253° West 410 472 36,000  Level Denver Center
Thu 11:09:14 AM 39.3614 -103.2158 253° West 411 473 36,000  Level Denver Center
Thu 11:10:16 AM 39.3267 -103.3567 252° West 407 468 36,000  Level Denver Center
Thu 11:11:18 AM 39.2925 -103.4997 253° West 413 475 36,000  Level Denver Center
Thu 11:12:20 AM 39.2578 -103.6419 253° West 412 474 36,000  Level Denver Center
Thu 11:13:21 AM 39.2231 -103.7856 253° West 414 476 36,000  Level Denver Center
Thu 11:14:23 AM 39.1867 -103.9303 252° West 417 480 36,000  Level Denver Center
Thu 11:15:25 AM 39.1503 -104.0750 252° West 419 482 36,000  Level Denver Center
Thu 11:16:27 AM 39.1128 -104.2194 252° West 420 483 36,000  Level Denver Center
Thu 11:17:29 AM 39.0714 -104.3858 252° West 415 478 36,000  Level Denver Center
Thu 11:18:31 AM 39.0344 -104.5319 252° West 424 488 36,000  Level Denver Center
Thu 11:19:33 AM 38.9972 -104.6758 252° West 420 483 36,000  Level Denver Center
Thu 11:20:35 AM 38.9603 -104.8200 252° West 420 483 36,000  Level Denver Center
Thu 11:21:36 AM 38.9222 -104.9653 251° West 422 486 36,000  Level Denver Center
Thu 11:22:38 AM 38.8853 -105.1114 252° West 424 488 36,000  Level Denver Center
Thu 11:23:40 AM 38.8467 -105.2536 251° West 419 482 36,000  Level Denver Center
Thu 11:24:42 AM 38.8083 -105.4000 251° West 426 490 36,000  Level Denver Center
Thu 11:25:44 AM 38.7714 -105.5425 252° West 419 482 36,000  Level Denver Center
Thu 11:26:46 AM 38.7333 -105.6842 251° West 419 482 36,000  Level Denver Center
Thu 11:27:48 AM 38.6883 -105.8517 251° West 421 484 36,000  Level Denver Center
Thu 11:28:49 AM 38.6503 -105.9956 251° West 424 488 36,000  Level Denver Center
Thu 11:29:51 AM 38.6136 -106.1303 251° West 423 487 36,000  Level Denver Center
Thu 11:30:53 AM 38.5714 -106.2808 250° West 425 489 36,000  Level Denver Center
Thu 11:31:55 AM 38.5325 -106.4247 251° West 426 490 36,000  Level Denver Center
Thu 11:32:57 AM 38.4908 -106.5747 251° West 432 497 36,000  Level Denver Center
Thu 11:33:58 AM 38.4514 -106.7153 250° West 431 496 36,000  Level Denver Center
Thu 11:35:00 AM 38.4103 -106.8619 250° West 434 499 36,000  Level Denver Center
Thu 11:36:02 AM 38.3706 -107.0042 250° West 426 490 36,000  Level Denver Center
Thu 11:37:04 AM 38.3294 -107.1492 250° West 432 497 36,000  Level Denver Center
Thu 11:38:06 AM 38.2811 -107.3217 250° West 428 493 36,000  Level Denver Center
Thu 11:39:07 AM 38.2414 -107.4581 250° West 429 494 36,000  Level Denver Center
Thu 11:40:22 AM 38.1889 -107.6408 250° West 430 495 36,000  Level Denver Center
Thu 11:41:23 AM 38.1500 -107.7783 250° West 430 495 36,000  Level Denver Center
Thu 11:42:25 AM 38.1031 -107.9397 250° West 434 499 36,000  Level Denver Center
Thu 11:43:27 AM 38.0642 -108.0719 250° West 433 498 36,000  Level Denver Center
Thu 11:44:41 AM 38.0181 -108.2306 250° West 430 495 36,000  Level Denver Center
Thu 11:45:43 AM 37.9644 -108.4089 249° West 426 490 36,000  Level Denver Center
Thu 11:46:45 AM 37.9256 -108.5428 250° West 425 489 36,000  Level Denver Center
Thu 11:47:46 AM 37.8853 -108.6761 249° West 424 488 36,000  Level Denver Center
Thu 11:48:48 AM 37.8383 -108.8308 249° West 424 488 36,000  Level Denver Center
Thu 11:49:50 AM 37.7994 -108.9653 250° West 425 489 36,000  Level Denver Center
Thu 11:50:51 AM 37.7603 -109.1253 253° West 426 490 36,000 -293 Level Denver Center
Thu 11:51:53 AM 37.7269 -109.2625 253° West 427 491 35,400 -823 Descending Denver Center
Thu 11:52:55 AM 37.6872 -109.4183 252° West 419 482 34,300 -677 Descending Denver Center
Thu 11:53:57 AM 37.6536 -109.5569 253° West 429 494 34,000 -146 Descending Denver Center
Thu 11:54:58 AM 37.6206 -109.7203 256° West 432 497 34,000  Level Denver Center
Thu 11:56:00 AM 37.5903 -109.8597 255° West 432 497 34,000  Level Denver Center
Thu 11:57:01 AM 37.5650 -109.9744 254° West 430 495 34,000  Level Denver Center
Thu 11:58:15 AM 37.5233 -110.1606 254° West 433 498 34,000  Level Denver Center
Thu 11:59:18 AM 37.4831 -110.3447 255° West 429 494 34,000  Level Denver Center
Thu 12:00:19 PM 37.4489 -110.4947 254° West 428 493 34,000  Level Denver Center
Thu 12:01:21 PM 37.4167 -110.6367 254° West 424 488 34,000  Level Denver Center
Thu 12:02:23 PM 37.3844 -110.7764 254° West 418 481 34,000  Level Denver Center
Thu 12:03:24 PM 37.3525 -110.9167 254° West 419 482 34,000  Level Denver Center
Thu 12:04:26 PM 37.3208 -111.0564 254° West 416 479 34,000  Level Denver Center
Thu 12:05:28 PM 37.2883 -111.1967 254° West 418 481 34,000  Level Denver Center
Thu 12:06:29 PM 37.2550 -111.3375 253° West 421 484 34,000 -244 Level Denver Center
Thu 12:07:31 PM 37.2231 -111.4803 254° West 424 488 33,500 -774 Descending Denver Center
Thu 12:08:33 PM 37.1808 -111.6575 253° West 442 509 32,400 -732 Descending Denver Center
Thu 12:09:34 PM 37.1481 -111.8050 254° West 440 506 32,000 -195 Descending Denver Center
Thu 12:10:36 PM 37.1117 -111.9528 253° West 441 507 32,000 -290 Level Denver Center
Thu 12:11:38 PM 37.0756 -112.1008 253° West 443 510 31,400 -841 Descending Denver Center
Thu 12:12:23 PM 37.0453 -112.2167 252° West 432 497 30,500 -1,056 Descending Los Angeles Center
Thu 12:13:26 PM 37.0114 -112.3550 253° West 418 481 29,500 -960 Descending Los Angeles Center
Thu 12:14:28 PM 36.9769 -112.4947 253° West 419 482 28,500 -968 Descending Los Angeles Center
Thu 12:15:30 PM 36.9428 -112.6328 253° West 416 479 27,500 -1,016 Descending Los Angeles Center
Thu 12:16:32 PM 36.9100 -112.7697 253° West 411 473 26,400 -1,065 Descending Los Angeles Center
Thu 12:17:34 PM 36.8700 -112.9278 252° West 400 460 25,300 -1,065 Descending Los Angeles Center
Thu 12:18:36 PM 36.8381 -113.0569 253° West 392 451 24,200 -629 Descending Los Angeles Center
Thu 12:19:38 PM 36.8047 -113.1869 252° West 392 451 24,000 -194 Descending Los Angeles Center
Thu 12:20:40 PM 36.7719 -113.3153 252° West 389 448 23,800 -581 Descending Los Angeles Center
Thu 12:21:42 PM 36.7322 -113.4414 249° West 390 449 22,800 -871 Descending Los Angeles Center
Thu 12:22:44 PM 36.7000 -113.5403 248° West 388 447 22,000 -968 Descending Los Angeles Center
Thu 12:23:46 PM 36.6533 -113.6889 249° West 384 442 20,800 -1,152 Descending Los Angeles Center
Thu 12:24:49 PM 36.6056 -113.8344 248° West 380 437 19,600 -1,056 Descending Los Angeles Center
Thu 12:25:51 PM 36.5667 -113.9536 248° West 376 433 18,600 -823 Descending Los Angeles Center
Thu 12:26:53 PM 36.5289 -114.0672 248° West 362 417 17,900 -1,258 Descending Los Angeles Center
Thu 12:27:55 PM 36.4917 -114.1839 248° West 355 409 16,000 -1,944 Descending Los Angeles Center
Thu 12:28:41 PM 36.4650 -114.2844 252° West 354 407 14,400 -1,839 Descending Los Angeles Center
Thu 12:28:57 PM 36.4556 -114.2944 220° Southwest 348 400 14,100 -1,935 Descending Los Angeles Center
Thu 12:29:12 PM 36.4458 -114.3339 253° West 338 389 13,400 -1,742 Descending Los Angeles Center
Thu 12:29:59 PM 36.4192 -114.4017 244° Southwest 340 391 12,300 -1,343 Descending Los Angeles Center
Thu 12:30:19 PM 36.3958 -114.4500 239° Southwest 331 381 11,900 -871 Descending Los Angeles Center
Thu 12:31:01 PM 36.3517 -114.4678 198° South 331 381 11,400 -1,000 Descending Los Angeles Center
Thu 12:31:19 PM 36.3100 -114.4925 206° Southwest 328 377 10,900 -1,065 Descending Los Angeles Center
Thu 12:32:03 PM 36.2525 -114.5236 204° Southwest 327 376 10,300 -984 Descending Los Angeles Center
Thu 12:32:20 PM 36.2397 -114.5458 235° Southwest 315 362 9,900 -1,216 Descending Los Angeles Center
Thu 12:33:17 PM 36.1911 -114.5961 220° Southwest 306 352 8,800 -950 Descending Los Angeles Center
Thu 12:34:20 PM 36.1172 -114.6781 222° Southwest 300 345 8,000 -864 Descending Los Angeles Center
Thu 12:35:22 PM 36.1014 -114.7586 256° West 266 306 7,000 -726 Descending Los Angeles Center
Thu 12:36:24 PM 36.0925 -114.8400 262° West 249 287 6,500 -629 Descending Los Angeles Center
Thu 12:37:26 PM 36.0844 -114.9122 262° West 232 267 5,700 -1,113 Descending Los Angeles Center
Thu 12:38:28 PM 36.0753 -114.9908 262° West 210 242 4,200 -1,403 Descending Los Angeles Center
Thu 12:38:43 PM 36.0739 -115.0092 265° West 197 227 3,900 -1,034 Descending Los Angeles Center
Thu 12:39:26 PM 36.0725 -115.0522 268° West 177 204 3,200 -771 Descending Los Angeles Center
Thu 12:40:32 PM 36.0731 -115.0994 271° West 185 213 2,500 -468 Descending Los Angeles Center
Thu 12:41:47 PM 36.0728 -115.1622 270° West 177 204 2,100 -320 Descending Los Angeles Center
Thu 12:43:00 PM 36.0667 -115.1500 North  Level FlightAware Approximate

Login

Don't have an account? Register now (free) for customized features, flight alerts, and more!